sensor_id;sensor_type;location;lat;lon;timestamp;temperature;humidity
23703;DHT22;12030;50.376;8.762;2023-04-07T00:00:18;7.50;99.90
23703;DHT22;12030;50.376;8.762;2023-04-07T00:02:43;7.50;99.90
23703;DHT22;12030;50.376;8.762;2023-04-07T00:05:09;7.40;99.90
23703;DHT22;12030;50.376;8.762;2023-04-07T00:07:34;7.40;99.90
23703;DHT22;12030;50.376;8.762;2023-04-07T00:10:00;7.40;99.90
23703;DHT22;12030;50.376;8.762;2023-04-07T00:12:25;7.40;99.90
23703;DHT22;12030;50.376;8.762;2023-04-07T00:14:51;7.50;99.90
23703;DHT22;12030;50.376;8.762;2023-04-07T00:17:17;7.40;99.90
23703;DHT22;12030;50.376;8.762;2023-04-07T00:19:42;7.40;99.90
23703;DHT22;12030;50.376;8.762;2023-04-07T00:22:08;7.50;99.90
23703;DHT22;12030;50.376;8.762;2023-04-07T00:24:34;7.50;99.90
23703;DHT22;12030;50.376;8.762;2023-04-07T00:26:59;7.50;99.90
23703;DHT22;12030;50.376;8.762;2023-04-07T00:29:25;7.50;99.90
23703;DHT22;12030;50.376;8.762;2023-04-07T00:31:51;7.50;99.90
23703;DHT22;12030;50.376;8.762;2023-04-07T00:34:16;7.50;99.90
23703;DHT22;12030;50.376;8.762;2023-04-07T00:36:42;7.50;99.90
23703;DHT22;12030;50.376;8.762;2023-04-07T00:39:07;7.50;99.90
23703;DHT22;12030;50.376;8.762;2023-04-07T00:41:34;7.50;99.90
23703;DHT22;12030;50.376;8.762;2023-04-07T00:44:00;7.50;99.90
23703;DHT22;12030;50.376;8.762;2023-04-07T00:46:26;7.50;99.90
23703;DHT22;12030;50.376;8.762;2023-04-07T00:48:51;7.50;99.90
23703;DHT22;12030;50.376;8.762;2023-04-07T00:51:20;7.50;99.90
23703;DHT22;12030;50.376;8.762;2023-04-07T00:53:46;7.50;99.90
23703;DHT22;12030;50.376;8.762;2023-04-07T00:56:11;7.50;99.90
23703;DHT22;12030;50.376;8.762;2023-04-07T00:58:37;7.50;99.90
23703;DHT22;12030;50.376;8.762;2023-04-07T01:01:15;7.50;99.90
23703;DHT22;12030;50.376;8.762;2023-04-07T01:04:19;7.50;99.90
23703;DHT22;12030;50.376;8.762;2023-04-07T01:06:49;7.50;99.90
23703;DHT22;12030;50.376;8.762;2023-04-07T01:09:20;7.60;99.90
23703;DHT22;12030;50.376;8.762;2023-04-07T01:12:23;7.50;99.90
23703;DHT22;12030;50.376;8.762;2023-04-07T01:14:53;7.50;99.90
23703;DHT22;12030;50.376;8.762;2023-04-07T01:17:20;7.50;99.90
23703;DHT22;12030;50.376;8.762;2023-04-07T01:19:55;7.50;99.90
23703;DHT22;12030;50.376;8.762;2023-04-07T01:22:28;7.50;99.90
23703;DHT22;12030;50.376;8.762;2023-04-07T01:30:28;7.50;99.90
23703;DHT22;12030;50.376;8.762;2023-04-07T01:32:54;7.50;99.90
23703;DHT22;12030;50.376;8.762;2023-04-07T01:35:23;7.50;99.90
23703;DHT22;12030;50.376;8.762;2023-04-07T01:37:50;7.50;99.90
23703;DHT22;12030;50.376;8.762;2023-04-07T01:40:16;7.60;99.90
23703;DHT22;12030;50.376;8.762;2023-04-07T01:42:43;7.60;99.90
23703;DHT22;12030;50.376;8.762;2023-04-07T01:45:10;7.60;99.90
23703;DHT22;12030;50.376;8.762;2023-04-07T01:47:37;7.60;99.90
23703;DHT22;12030;50.376;8.762;2023-04-07T01:50:03;7.60;99.90
23703;DHT22;12030;50.376;8.762;2023-04-07T01:52:31;7.60;99.90
23703;DHT22;12030;50.376;8.762;2023-04-07T01:54:56;7.60;99.90
23703;DHT22;12030;50.376;8.762;2023-04-07T01:57:22;7.60;99.90
23703;DHT22;12030;50.376;8.762;2023-04-07T01:59:48;7.60;99.90
23703;DHT22;12030;50.376;8.762;2023-04-07T02:02:13;7.60;99.90
23703;DHT22;12030;50.376;8.762;2023-04-07T02:04:39;7.50;99.90
23703;DHT22;12030;50.376;8.762;2023-04-07T02:07:15;7.50;99.90
23703;DHT22;12030;50.376;8.762;2023-04-07T02:09:44;7.50;99.90
23703;DHT22;12030;50.376;8.762;2023-04-07T02:12:12;7.50;99.90
23703;DHT22;12030;50.376;8.762;2023-04-07T02:14:38;7.50;99.90
23703;DHT22;12030;50.376;8.762;2023-04-07T02:17:05;7.50;99.90
23703;DHT22;12030;50.376;8.762;2023-04-07T02:19:34;7.50;99.90
23703;DHT22;12030;50.376;8.762;2023-04-07T02:22:02;7.50;99.90
23703;DHT22;12030;50.376;8.762;2023-04-07T02:24:29;7.50;99.90
23703;DHT22;12030;50.376;8.762;2023-04-07T02:26:54;7.40;99.90
23703;DHT22;12030;50.376;8.762;2023-04-07T02:29:20;7.40;99.90
23703;DHT22;12030;50.376;8.762;2023-04-07T02:31:46;7.30;99.90
23703;DHT22;12030;50.376;8.762;2023-04-07T02:34:11;7.40;99.90
23703;DHT22;12030;50.376;8.762;2023-04-07T02:36:37;7.40;99.90
23703;DHT22;12030;50.376;8.762;2023-04-07T02:39:02;7.40;99.90
23703;DHT22;12030;50.376;8.762;2023-04-07T02:41:28;7.40;99.90
23703;DHT22;12030;50.376;8.762;2023-04-07T02:43:54;7.40;99.90
23703;DHT22;12030;50.376;8.762;2023-04-07T02:46:19;7.40;99.90
23703;DHT22;12030;50.376;8.762;2023-04-07T02:48:45;7.40;99.90
23703;DHT22;12030;50.376;8.762;2023-04-07T02:51:10;7.40;99.90
23703;DHT22;12030;50.376;8.762;2023-04-07T02:53:36;7.40;99.90
23703;DHT22;12030;50.376;8.762;2023-04-07T02:56:01;7.40;99.90
23703;DHT22;12030;50.376;8.762;2023-04-07T02:58:27;7.40;99.90
23703;DHT22;12030;50.376;8.762;2023-04-07T03:00:53;7.30;99.90
23703;DHT22;12030;50.376;8.762;2023-04-07T03:03:18;7.30;99.90
23703;DHT22;12030;50.376;8.762;2023-04-07T03:05:44;7.30;99.90
23703;DHT22;12030;50.376;8.762;2023-04-07T03:08:09;7.30;99.90
23703;DHT22;12030;50.376;8.762;2023-04-07T03:10:35;7.30;99.90
23703;DHT22;12030;50.376;8.762;2023-04-07T03:13:00;7.30;99.90
23703;DHT22;12030;50.376;8.762;2023-04-07T03:15:26;7.30;99.90
23703;DHT22;12030;50.376;8.762;2023-04-07T03:17:51;7.30;99.90
23703;DHT22;12030;50.376;8.762;2023-04-07T03:20:17;7.30;99.90
23703;DHT22;12030;50.376;8.762;2023-04-07T03:22:42;7.30;99.90
23703;DHT22;12030;50.376;8.762;2023-04-07T03:25:09;7.30;99.90
23703;DHT22;12030;50.376;8.762;2023-04-07T03:27:35;7.30;99.90
23703;DHT22;12030;50.376;8.762;2023-04-07T03:30:01;7.30;99.90
23703;DHT22;12030;50.376;8.762;2023-04-07T03:32:26;7.30;99.90
23703;DHT22;12030;50.376;8.762;2023-04-07T03:34:52;7.30;99.90
23703;DHT22;12030;50.376;8.762;2023-04-07T03:37:17;7.30;99.90
23703;DHT22;12030;50.376;8.762;2023-04-07T03:39:43;7.40;99.90
23703;DHT22;12030;50.376;8.762;2023-04-07T03:42:08;7.30;99.90
23703;DHT22;12030;50.376;8.762;2023-04-07T03:44:34;7.40;99.90
23703;DHT22;12030;50.376;8.762;2023-04-07T03:47:00;7.30;99.90
23703;DHT22;12030;50.376;8.762;2023-04-07T03:49:25;7.30;99.90
23703;DHT22;12030;50.376;8.762;2023-04-07T03:51:51;7.30;99.90
23703;DHT22;12030;50.376;8.762;2023-04-07T03:54:16;7.30;99.90
23703;DHT22;12030;50.376;8.762;2023-04-07T03:56:42;7.30;99.90
23703;DHT22;12030;50.376;8.762;2023-04-07T03:59:07;7.30;99.90
23703;DHT22;12030;50.376;8.762;2023-04-07T04:01:33;7.30;99.90
23703;DHT22;12030;50.376;8.762;2023-04-07T04:04:01;7.30;99.90
23703;DHT22;12030;50.376;8.762;2023-04-07T04:06:26;7.30;99.90
23703;DHT22;12030;50.376;8.762;2023-04-07T04:08:52;7.30;99.90
23703;DHT22;12030;50.376;8.762;2023-04-07T04:11:17;7.30;99.90
23703;DHT22;12030;50.376;8.762;2023-04-07T04:13:43;7.30;99.90
23703;DHT22;12030;50.376;8.762;2023-04-07T04:16:08;7.30;99.90
23703;DHT22;12030;50.376;8.762;2023-04-07T04:18:34;7.30;99.90
23703;DHT22;12030;50.376;8.762;2023-04-07T04:21:00;7.40;99.90
23703;DHT22;12030;50.376;8.762;2023-04-07T04:23:25;7.30;99.90
23703;DHT22;12030;50.376;8.762;2023-04-07T04:25:51;7.30;99.90
23703;DHT22;12030;50.376;8.762;2023-04-07T04:28:16;7.30;99.90
23703;DHT22;12030;50.376;8.762;2023-04-07T04:30:42;7.40;99.90
23703;DHT22;12030;50.376;8.762;2023-04-07T04:33:07;7.30;99.90
23703;DHT22;12030;50.376;8.762;2023-04-07T04:35:33;7.30;99.90
23703;DHT22;12030;50.376;8.762;2023-04-07T04:37:58;7.30;99.90
23703;DHT22;12030;50.376;8.762;2023-04-07T04:40:24;7.30;99.90
23703;DHT22;12030;50.376;8.762;2023-04-07T04:42:49;7.30;99.90
23703;DHT22;12030;50.376;8.762;2023-04-07T04:45:15;7.30;99.90
23703;DHT22;12030;50.376;8.762;2023-04-07T04:47:40;7.30;99.90
23703;DHT22;12030;50.376;8.762;2023-04-07T04:50:09;7.30;99.90
23703;DHT22;12030;50.376;8.762;2023-04-07T04:52:35;7.30;99.90
23703;DHT22;12030;50.376;8.762;2023-04-07T04:55:00;7.40;99.90
23703;DHT22;12030;50.376;8.762;2023-04-07T04:57:26;7.30;99.90
23703;DHT22;12030;50.376;8.762;2023-04-07T04:59:51;7.30;99.90
23703;DHT22;12030;50.376;8.762;2023-04-07T05:02:17;7.30;99.90
23703;DHT22;12030;50.376;8.762;2023-04-07T05:04:42;7.30;99.90
23703;DHT22;12030;50.376;8.762;2023-04-07T05:07:08;7.30;99.90
23703;DHT22;12030;50.376;8.762;2023-04-07T05:09:33;7.30;99.90
23703;DHT22;12030;50.376;8.762;2023-04-07T05:11:59;7.30;99.90
23703;DHT22;12030;50.376;8.762;2023-04-07T05:14:26;7.30;99.90
23703;DHT22;12030;50.376;8.762;2023-04-07T05:16:51;7.30;99.90
23703;DHT22;12030;50.376;8.762;2023-04-07T05:19:18;7.30;99.90
23703;DHT22;12030;50.376;8.762;2023-04-07T05:21:44;7.40;99.90
23703;DHT22;12030;50.376;8.762;2023-04-07T05:24:09;7.40;99.90
23703;DHT22;12030;50.376;8.762;2023-04-07T05:26:35;7.40;99.90
23703;DHT22;12030;50.376;8.762;2023-04-07T05:29:00;7.40;99.90
23703;DHT22;12030;50.376;8.762;2023-04-07T05:31:26;7.40;99.90
23703;DHT22;12030;50.376;8.762;2023-04-07T05:33:51;7.40;99.90
23703;DHT22;12030;50.376;8.762;2023-04-07T05:36:17;7.40;99.90
23703;DHT22;12030;50.376;8.762;2023-04-07T05:38:43;7.50;99.90
23703;DHT22;12030;50.376;8.762;2023-04-07T05:41:09;7.50;99.90
23703;DHT22;12030;50.376;8.762;2023-04-07T05:43:34;7.50;99.90
23703;DHT22;12030;50.376;8.762;2023-04-07T05:46:00;7.50;99.90
23703;DHT22;12030;50.376;8.762;2023-04-07T05:48:25;7.50;99.90
23703;DHT22;12030;50.376;8.762;2023-04-07T05:50:51;7.50;99.90
23703;DHT22;12030;50.376;8.762;2023-04-07T05:53:16;7.50;99.90
23703;DHT22;12030;50.376;8.762;2023-04-07T05:55:42;7.50;99.90
23703;DHT22;12030;50.376;8.762;2023-04-07T05:58:08;7.40;99.90
23703;DHT22;12030;50.376;8.762;2023-04-07T06:00:33;7.40;99.90
23703;DHT22;12030;50.376;8.762;2023-04-07T06:02:59;7.50;99.90
23703;DHT22;12030;50.376;8.762;2023-04-07T06:05:26;7.50;99.90
23703;DHT22;12030;50.376;8.762;2023-04-07T06:07:51;7.50;99.90
23703;DHT22;12030;50.376;8.762;2023-04-07T06:10:17;7.60;99.90
23703;DHT22;12030;50.376;8.762;2023-04-07T06:12:42;7.60;99.90
23703;DHT22;12030;50.376;8.762;2023-04-07T06:15:08;7.60;99.90
23703;DHT22;12030;50.376;8.762;2023-04-07T06:17:34;7.60;99.90
23703;DHT22;12030;50.376;8.762;2023-04-07T06:19:59;7.70;99.90
23703;DHT22;12030;50.376;8.762;2023-04-07T06:22:25;7.60;99.90
23703;DHT22;12030;50.376;8.762;2023-04-07T06:24:50;7.60;99.90
23703;DHT22;12030;50.376;8.762;2023-04-07T06:27:17;7.70;99.90
23703;DHT22;12030;50.376;8.762;2023-04-07T06:29:42;7.70;99.90
23703;DHT22;12030;50.376;8.762;2023-04-07T06:32:08;7.80;99.90
23703;DHT22;12030;50.376;8.762;2023-04-07T06:34:33;7.80;99.90
23703;DHT22;12030;50.376;8.762;2023-04-07T06:36:59;7.80;99.90
23703;DHT22;12030;50.376;8.762;2023-04-07T06:39:26;7.90;99.90
23703;DHT22;12030;50.376;8.762;2023-04-07T06:41:52;7.90;99.90
23703;DHT22;12030;50.376;8.762;2023-04-07T06:44:17;7.90;99.90
23703;DHT22;12030;50.376;8.762;2023-04-07T06:46:43;7.90;99.90
23703;DHT22;12030;50.376;8.762;2023-04-07T06:49:11;8.00;99.90
23703;DHT22;12030;50.376;8.762;2023-04-07T06:51:37;7.90;99.90
23703;DHT22;12030;50.376;8.762;2023-04-07T06:54:02;8.00;99.90
23703;DHT22;12030;50.376;8.762;2023-04-07T06:56:29;7.90;99.90
23703;DHT22;12030;50.376;8.762;2023-04-07T06:58:55;8.00;99.90
23703;DHT22;12030;50.376;8.762;2023-04-07T07:01:21;8.00;99.90
23703;DHT22;12030;50.376;8.762;2023-04-07T07:03:46;8.00;99.90
23703;DHT22;12030;50.376;8.762;2023-04-07T07:06:12;8.00;99.90
23703;DHT22;12030;50.376;8.762;2023-04-07T07:08:38;8.00;99.90
23703;DHT22;12030;50.376;8.762;2023-04-07T07:11:04;8.10;99.90
23703;DHT22;12030;50.376;8.762;2023-04-07T07:13:29;8.00;99.90
23703;DHT22;12030;50.376;8.762;2023-04-07T07:15:55;8.10;99.90
23703;DHT22;12030;50.376;8.762;2023-04-07T07:18:21;8.10;99.90
23703;DHT22;12030;50.376;8.762;2023-04-07T07:20:46;8.10;99.90
23703;DHT22;12030;50.376;8.762;2023-04-07T07:23:12;8.10;99.90
23703;DHT22;12030;50.376;8.762;2023-04-07T07:25:37;8.10;99.90
23703;DHT22;12030;50.376;8.762;2023-04-07T07:28:03;8.10;99.90
23703;DHT22;12030;50.376;8.762;2023-04-07T07:30:28;8.10;99.90
23703;DHT22;12030;50.376;8.762;2023-04-07T07:32:54;8.10;99.90
23703;DHT22;12030;50.376;8.762;2023-04-07T07:35:20;8.10;99.90
23703;DHT22;12030;50.376;8.762;2023-04-07T07:37:46;8.10;99.90
23703;DHT22;12030;50.376;8.762;2023-04-07T07:40:12;8.10;99.90
23703;DHT22;12030;50.376;8.762;2023-04-07T07:42:38;8.20;99.90
23703;DHT22;12030;50.376;8.762;2023-04-07T07:45:04;8.20;99.90
23703;DHT22;12030;50.376;8.762;2023-04-07T07:47:30;8.20;99.90
23703;DHT22;12030;50.376;8.762;2023-04-07T07:49:56;8.20;99.90
23703;DHT22;12030;50.376;8.762;2023-04-07T07:52:22;8.20;99.90
23703;DHT22;12030;50.376;8.762;2023-04-07T07:54:48;8.20;99.90
23703;DHT22;12030;50.376;8.762;2023-04-07T07:57:14;8.30;99.90
23703;DHT22;12030;50.376;8.762;2023-04-07T07:59:40;8.30;99.90
23703;DHT22;12030;50.376;8.762;2023-04-07T08:02:07;8.30;99.90
23703;DHT22;12030;50.376;8.762;2023-04-07T08:04:33;8.30;99.90
23703;DHT22;12030;50.376;8.762;2023-04-07T08:06:59;8.30;99.90
23703;DHT22;12030;50.376;8.762;2023-04-07T08:09:25;8.30;99.90
23703;DHT22;12030;50.376;8.762;2023-04-07T08:11:50;8.40;99.90
23703;DHT22;12030;50.376;8.762;2023-04-07T08:14:16;8.40;99.90
23703;DHT22;12030;50.376;8.762;2023-04-07T08:16:42;8.40;99.90
23703;DHT22;12030;50.376;8.762;2023-04-07T08:19:08;8.50;99.90
23703;DHT22;12030;50.376;8.762;2023-04-07T08:21:34;8.50;99.90
23703;DHT22;12030;50.376;8.762;2023-04-07T08:23:59;8.60;99.90
23703;DHT22;12030;50.376;8.762;2023-04-07T08:26:25;8.60;99.90
23703;DHT22;12030;50.376;8.762;2023-04-07T08:28:51;8.50;99.90
23703;DHT22;12030;50.376;8.762;2023-04-07T08:31:17;8.60;99.90
23703;DHT22;12030;50.376;8.762;2023-04-07T08:33:43;8.60;99.90
23703;DHT22;12030;50.376;8.762;2023-04-07T08:36:09;8.60;99.90
23703;DHT22;12030;50.376;8.762;2023-04-07T08:38:34;8.60;99.90
23703;DHT22;12030;50.376;8.762;2023-04-07T08:41:04;8.60;99.90
23703;DHT22;12030;50.376;8.762;2023-04-07T08:43:34;8.60;99.90
23703;DHT22;12030;50.376;8.762;2023-04-07T08:46:01;8.60;99.90
23703;DHT22;12030;50.376;8.762;2023-04-07T08:48:27;8.50;99.90
23703;DHT22;12030;50.376;8.762;2023-04-07T08:51:03;8.60;99.90
23703;DHT22;12030;50.376;8.762;2023-04-07T08:53:37;8.60;99.90
23703;DHT22;12030;50.376;8.762;2023-04-07T08:56:05;8.60;99.90
23703;DHT22;12030;50.376;8.762;2023-04-07T08:58:31;8.70;99.90
23703;DHT22;12030;50.376;8.762;2023-04-07T09:00:57;8.70;99.90
23703;DHT22;12030;50.376;8.762;2023-04-07T09:03:23;8.80;99.90
23703;DHT22;12030;50.376;8.762;2023-04-07T09:05:50;8.80;99.90
23703;DHT22;12030;50.376;8.762;2023-04-07T09:08:16;8.80;99.90
23703;DHT22;12030;50.376;8.762;2023-04-07T09:10:41;8.90;99.90
23703;DHT22;12030;50.376;8.762;2023-04-07T09:13:07;8.90;99.90
23703;DHT22;12030;50.376;8.762;2023-04-07T09:15:33;8.90;99.90
23703;DHT22;12030;50.376;8.762;2023-04-07T09:17:58;8.90;99.90
23703;DHT22;12030;50.376;8.762;2023-04-07T09:20:24;9.00;99.90
23703;DHT22;12030;50.376;8.762;2023-04-07T09:22:50;9.00;99.90
23703;DHT22;12030;50.376;8.762;2023-04-07T09:25:18;9.00;99.90
23703;DHT22;12030;50.376;8.762;2023-04-07T09:28:00;9.00;99.90
23703;DHT22;12030;50.376;8.762;2023-04-07T09:30:28;9.00;99.90
23703;DHT22;12030;50.376;8.762;2023-04-07T09:32:54;9.10;99.90
23703;DHT22;12030;50.376;8.762;2023-04-07T09:35:19;9.10;99.90
23703;DHT22;12030;50.376;8.762;2023-04-07T09:38:01;9.10;99.90
23703;DHT22;12030;50.376;8.762;2023-04-07T09:40:27;9.10;99.90
23703;DHT22;12030;50.376;8.762;2023-04-07T09:42:53;9.20;99.90
23703;DHT22;12030;50.376;8.762;2023-04-07T09:45:23;9.20;99.90
23703;DHT22;12030;50.376;8.762;2023-04-07T09:47:49;9.30;99.90
23703;DHT22;12030;50.376;8.762;2023-04-07T09:50:30;9.30;99.90
23703;DHT22;12030;50.376;8.762;2023-04-07T09:52:57;9.20;99.90
23703;DHT22;12030;50.376;8.762;2023-04-07T09:55:22;9.30;99.90
23703;DHT22;12030;50.376;8.762;2023-04-07T09:57:49;9.30;99.90
23703;DHT22;12030;50.376;8.762;2023-04-07T10:00:15;9.30;99.90
23703;DHT22;12030;50.376;8.762;2023-04-07T10:02:42;9.20;99.90
23703;DHT22;12030;50.376;8.762;2023-04-07T10:05:09;9.30;99.90
23703;DHT22;12030;50.376;8.762;2023-04-07T10:07:35;9.30;99.90
23703;DHT22;12030;50.376;8.762;2023-04-07T10:10:02;9.30;99.90
23703;DHT22;12030;50.376;8.762;2023-04-07T10:12:30;9.30;99.90
23703;DHT22;12030;50.376;8.762;2023-04-07T10:14:57;9.30;99.90
23703;DHT22;12030;50.376;8.762;2023-04-07T10:17:25;9.40;99.90
23703;DHT22;12030;50.376;8.762;2023-04-07T10:19:53;9.40;99.90
23703;DHT22;12030;50.376;8.762;2023-04-07T10:22:19;9.40;99.90
23703;DHT22;12030;50.376;8.762;2023-04-07T10:27:31;9.50;99.90
23703;DHT22;12030;50.376;8.762;2023-04-07T10:29:58;9.50;99.90
23703;DHT22;12030;50.376;8.762;2023-04-07T10:32:24;9.60;99.90
23703;DHT22;12030;50.376;8.762;2023-04-07T10:37:18;9.50;99.90
23703;DHT22;12030;50.376;8.762;2023-04-07T10:39:46;9.60;99.90
23703;DHT22;12030;50.376;8.762;2023-04-07T10:45:07;9.70;99.90
23703;DHT22;12030;50.376;8.762;2023-04-07T10:48:19;9.70;99.90
23703;DHT22;12030;50.376;8.762;2023-04-07T10:50:20;9.70;99.90
23703;DHT22;12030;50.376;8.762;2023-04-07T10:52:47;9.80;99.90
23703;DHT22;12030;50.376;8.762;2023-04-07T10:55:34;9.80;99.90
23703;DHT22;12030;50.376;8.762;2023-04-07T10:58:24;9.70;99.90
23703;DHT22;12030;50.376;8.762;2023-04-07T11:03:30;9.70;99.90
23703;DHT22;12030;50.376;8.762;2023-04-07T11:06:03;9.70;99.90
23703;DHT22;12030;50.376;8.762;2023-04-07T11:08:37;9.80;99.90
23703;DHT22;12030;50.376;8.762;2023-04-07T11:11:06;9.80;99.90
23703;DHT22;12030;50.376;8.762;2023-04-07T11:16:08;9.90;99.90
23703;DHT22;12030;50.376;8.762;2023-04-07T11:18:35;9.90;99.90
23703;DHT22;12030;50.376;8.762;2023-04-07T11:21:02;9.80;99.90
23703;DHT22;12030;50.376;8.762;2023-04-07T11:23:28;9.90;99.90
23703;DHT22;12030;50.376;8.762;2023-04-07T11:26:00;9.80;99.90
23703;DHT22;12030;50.376;8.762;2023-04-07T11:28:27;9.90;99.90
23703;DHT22;12030;50.376;8.762;2023-04-07T11:30:53;10.00;99.90
23703;DHT22;12030;50.376;8.762;2023-04-07T11:33:20;10.00;99.90
23703;DHT22;12030;50.376;8.762;2023-04-07T11:36:00;10.10;99.90
23703;DHT22;12030;50.376;8.762;2023-04-07T11:38:27;10.00;99.90
23703;DHT22;12030;50.376;8.762;2023-04-07T11:40:54;10.10;99.90
23703;DHT22;12030;50.376;8.762;2023-04-07T11:43:25;10.20;99.90
23703;DHT22;12030;50.376;8.762;2023-04-07T11:46:13;10.30;99.90
23703;DHT22;12030;50.376;8.762;2023-04-07T11:48:40;10.30;99.90
23703;DHT22;12030;50.376;8.762;2023-04-07T11:51:14;10.30;99.90
23703;DHT22;12030;50.376;8.762;2023-04-07T11:53:40;10.50;99.90
23703;DHT22;12030;50.376;8.762;2023-04-07T11:56:08;10.60;99.90
23703;DHT22;12030;50.376;8.762;2023-04-07T11:58:49;10.60;99.90
23703;DHT22;12030;50.376;8.762;2023-04-07T12:01:15;10.70;99.90
23703;DHT22;12030;50.376;8.762;2023-04-07T12:04:02;10.70;99.90
23703;DHT22;12030;50.376;8.762;2023-04-07T12:06:32;10.80;99.90
23703;DHT22;12030;50.376;8.762;2023-04-07T12:09:03;10.80;99.90
23703;DHT22;12030;50.376;8.762;2023-04-07T12:11:30;10.90;99.90
23703;DHT22;12030;50.376;8.762;2023-04-07T12:13:56;10.90;99.90
23703;DHT22;12030;50.376;8.762;2023-04-07T12:16:22;11.00;99.90
23703;DHT22;12030;50.376;8.762;2023-04-07T12:18:48;11.10;99.90
23703;DHT22;12030;50.376;8.762;2023-04-07T12:21:14;11.10;99.90
23703;DHT22;12030;50.376;8.762;2023-04-07T12:23:40;11.10;99.90
23703;DHT22;12030;50.376;8.762;2023-04-07T12:26:06;11.10;99.90
23703;DHT22;12030;50.376;8.762;2023-04-07T12:28:32;11.10;99.90
23703;DHT22;12030;50.376;8.762;2023-04-07T12:30:57;11.20;99.90
23703;DHT22;12030;50.376;8.762;2023-04-07T12:33:23;11.20;99.90
23703;DHT22;12030;50.376;8.762;2023-04-07T12:35:48;11.20;99.90
23703;DHT22;12030;50.376;8.762;2023-04-07T12:38:14;11.10;99.90
23703;DHT22;12030;50.376;8.762;2023-04-07T12:40:40;11.20;99.90
23703;DHT22;12030;50.376;8.762;2023-04-07T12:43:06;11.40;99.90
23703;DHT22;12030;50.376;8.762;2023-04-07T12:45:31;11.40;99.90
23703;DHT22;12030;50.376;8.762;2023-04-07T12:47:58;11.50;99.90
23703;DHT22;12030;50.376;8.762;2023-04-07T12:50:23;11.30;99.90
23703;DHT22;12030;50.376;8.762;2023-04-07T12:52:50;11.30;99.90
23703;DHT22;12030;50.376;8.762;2023-04-07T12:55:16;11.40;99.90
23703;DHT22;12030;50.376;8.762;2023-04-07T12:57:42;11.40;99.90
23703;DHT22;12030;50.376;8.762;2023-04-07T13:00:08;11.50;99.90
23703;DHT22;12030;50.376;8.762;2023-04-07T13:02:34;11.60;99.90
23703;DHT22;12030;50.376;8.762;2023-04-07T13:05:01;11.70;99.90
23703;DHT22;12030;50.376;8.762;2023-04-07T13:07:26;11.70;99.90
23703;DHT22;12030;50.376;8.762;2023-04-07T13:09:52;11.80;99.90
23703;DHT22;12030;50.376;8.762;2023-04-07T13:12:19;11.80;99.90
23703;DHT22;12030;50.376;8.762;2023-04-07T13:14:44;11.90;99.90
23703;DHT22;12030;50.376;8.762;2023-04-07T13:17:10;11.90;99.90
23703;DHT22;12030;50.376;8.762;2023-04-07T13:19:36;11.60;99.90
23703;DHT22;12030;50.376;8.762;2023-04-07T13:22:01;11.70;99.90
23703;DHT22;12030;50.376;8.762;2023-04-07T13:24:27;11.70;99.90
23703;DHT22;12030;50.376;8.762;2023-04-07T13:26:53;11.80;99.90
23703;DHT22;12030;50.376;8.762;2023-04-07T13:29:19;11.80;99.90
23703;DHT22;12030;50.376;8.762;2023-04-07T13:31:46;11.90;99.90
23703;DHT22;12030;50.376;8.762;2023-04-07T13:34:12;11.70;99.90
23703;DHT22;12030;50.376;8.762;2023-04-07T13:36:38;11.40;99.90
23703;DHT22;12030;50.376;8.762;2023-04-07T13:39:03;11.40;99.90
23703;DHT22;12030;50.376;8.762;2023-04-07T13:41:29;11.30;99.90
23703;DHT22;12030;50.376;8.762;2023-04-07T13:43:56;11.20;99.90
23703;DHT22;12030;50.376;8.762;2023-04-07T13:46:23;11.00;99.90
23703;DHT22;12030;50.376;8.762;2023-04-07T13:48:48;11.00;99.90
23703;DHT22;12030;50.376;8.762;2023-04-07T13:51:15;11.00;99.90
23703;DHT22;12030;50.376;8.762;2023-04-07T13:53:41;10.80;99.90
23703;DHT22;12030;50.376;8.762;2023-04-07T13:56:06;11.00;99.90
23703;DHT22;12030;50.376;8.762;2023-04-07T13:58:33;11.10;99.90
23703;DHT22;12030;50.376;8.762;2023-04-07T14:00:59;11.30;99.90
23703;DHT22;12030;50.376;8.762;2023-04-07T14:03:24;11.20;99.90
23703;DHT22;12030;50.376;8.762;2023-04-07T14:05:50;11.20;99.90
23703;DHT22;12030;50.376;8.762;2023-04-07T14:08:16;11.00;99.90
23703;DHT22;12030;50.376;8.762;2023-04-07T14:10:43;11.10;99.90
23703;DHT22;12030;50.376;8.762;2023-04-07T14:13:08;11.20;99.90
23703;DHT22;12030;50.376;8.762;2023-04-07T14:15:35;11.30;99.90
23703;DHT22;12030;50.376;8.762;2023-04-07T14:18:00;11.50;99.90
23703;DHT22;12030;50.376;8.762;2023-04-07T14:20:26;11.50;99.90
23703;DHT22;12030;50.376;8.762;2023-04-07T14:22:51;11.60;99.90
23703;DHT22;12030;50.376;8.762;2023-04-07T14:25:17;11.60;99.90
23703;DHT22;12030;50.376;8.762;2023-04-07T14:27:43;11.70;99.90
23703;DHT22;12030;50.376;8.762;2023-04-07T14:30:09;11.70;99.90
23703;DHT22;12030;50.376;8.762;2023-04-07T14:32:34;11.70;99.90
23703;DHT22;12030;50.376;8.762;2023-04-07T14:35:00;11.70;99.90
23703;DHT22;12030;50.376;8.762;2023-04-07T14:37:27;11.80;99.90
23703;DHT22;12030;50.376;8.762;2023-04-07T14:39:52;11.80;99.90
23703;DHT22;12030;50.376;8.762;2023-04-07T14:42:18;11.70;99.90
23703;DHT22;12030;50.376;8.762;2023-04-07T14:44:44;11.60;99.90
23703;DHT22;12030;50.376;8.762;2023-04-07T14:47:10;11.50;99.90
23703;DHT22;12030;50.376;8.762;2023-04-07T14:49:35;11.40;99.90
23703;DHT22;12030;50.376;8.762;2023-04-07T14:52:01;11.30;99.90
23703;DHT22;12030;50.376;8.762;2023-04-07T14:54:28;11.40;99.90
23703;DHT22;12030;50.376;8.762;2023-04-07T14:56:53;11.30;99.90
23703;DHT22;12030;50.376;8.762;2023-04-07T14:59:19;11.20;99.90
23703;DHT22;12030;50.376;8.762;2023-04-07T15:01:45;11.10;99.90
23703;DHT22;12030;50.376;8.762;2023-04-07T15:04:10;11.20;99.90
23703;DHT22;12030;50.376;8.762;2023-04-07T15:06:36;11.20;99.90
23703;DHT22;12030;50.376;8.762;2023-04-07T15:09:01;11.30;99.90
23703;DHT22;12030;50.376;8.762;2023-04-07T15:11:27;11.30;99.90
23703;DHT22;12030;50.376;8.762;2023-04-07T15:13:53;11.30;99.90
23703;DHT22;12030;50.376;8.762;2023-04-07T15:16:18;11.40;99.90
23703;DHT22;12030;50.376;8.762;2023-04-07T15:18:45;11.30;99.90
23703;DHT22;12030;50.376;8.762;2023-04-07T15:21:12;11.40;99.90
23703;DHT22;12030;50.376;8.762;2023-04-07T15:23:38;11.40;99.90
23703;DHT22;12030;50.376;8.762;2023-04-07T15:26:06;11.40;99.90
23703;DHT22;12030;50.376;8.762;2023-04-07T15:28:31;11.30;99.90
23703;DHT22;12030;50.376;8.762;2023-04-07T15:30:58;11.20;99.90
23703;DHT22;12030;50.376;8.762;2023-04-07T15:33:23;11.20;99.90
23703;DHT22;12030;50.376;8.762;2023-04-07T15:35:49;11.20;99.90
23703;DHT22;12030;50.376;8.762;2023-04-07T15:38:15;11.20;99.90
23703;DHT22;12030;50.376;8.762;2023-04-07T15:40:40;11.20;99.90
23703;DHT22;12030;50.376;8.762;2023-04-07T15:43:06;11.10;99.90
23703;DHT22;12030;50.376;8.762;2023-04-07T15:45:37;11.10;99.90
23703;DHT22;12030;50.376;8.762;2023-04-07T15:48:04;11.00;99.90
23703;DHT22;12030;50.376;8.762;2023-04-07T15:50:29;11.00;99.90
23703;DHT22;12030;50.376;8.762;2023-04-07T15:52:56;11.00;99.90
23703;DHT22;12030;50.376;8.762;2023-04-07T15:55:21;11.00;99.90
23703;DHT22;12030;50.376;8.762;2023-04-07T15:57:47;11.00;99.90